Airfield :
LOGIN :

Register | Disclaimer

   EN    FR    IT 

 










Legend :    VFR   Marginal VFR   IFR   Intensive IFR   Very Intensive IFR
Visi :
Ceiling :
>= 8 km
>= 3000ft
5 to 8 km
1000 to 3000 ft
1500m to 5 km
500 to 1000 ft
800 to 1500m
200 to 500 ft
< 800m
< 200 ft
Symbols :   Thunderstorms  Fog  Heavy snow  Heavy precipitations  Wind > 20 kt
SIGMETs :     Misc.  Thunderstorms  Icing  Turbulence  Mountain Waves  Volcanic Ashes







- Airport Elevation : 18 ft
- IATA code : AJA
- Download approach charts


LFKJ - Ajaccio

CURRENT METAR :
  • 251830Z AUTO 21005KT CAVOK 21/16 Q1015 NOSIG

EXPIRED METARs :
  • 251800Z AUTO 21003KT CAVOK 22/17 Q1015 NOSIG
  • 251730Z AUTO 22005KT CAVOK 23/17 Q1015 NOSIG
  • 251700Z AUTO 21006KT CAVOK 24/17 Q1015 NOSIG
  • 251630Z AUTO 21006KT 170V240 CAVOK 24/17 Q1015 NOSIG
  • 251600Z AUTO 21007KT CAVOK 24/18 Q1015 NOSIG
  • 251530Z AUTO 20007KT CAVOK 24/17 Q1015 NOSIG

TAF TAF LFKJ
Valid from the 25 at 15:00 until the 26 at 15:00 UTC


251400Z 2515/2615 20008KT 9999 FEW035
BECMG 2518/2520 05004KT
BECMG 2608/2610 22010KT
ATIS : +33 4 95 23 59 85
No reported NOTAMs for that airfield.



MET'MAP, your aeronautical weather chart ! - Copyright ORBIFLY December 2007 - Disclaimer

ORBIFLY MET'MAP TEAM :

Programming & Development : Alexandra Zaïnal
Concept & Development : Baudouin d'Aumeries
Co-Development & Prog : Marc-Olivier Méhu
Technical & hardware support : Manuel Goepfert

Contact : metmap@orbifly.com




SOURCES & CREDITS :

   NOAA